createdAt,value
2018-04-22T00:00:45.426Z,84.75
2018-04-22T00:01:45.396Z,85.00
2018-04-22T00:02:45.365Z,84.66
2018-04-22T00:03:45.339Z,84.95
2018-04-22T00:04:45.319Z,85.04
2018-04-22T00:05:45.288Z,84.66
2018-04-22T00:06:45.270Z,84.66
2018-04-22T00:07:45.252Z,84.75
2018-04-22T00:08:45.217Z,84.85
2018-04-22T00:09:45.190Z,84.85
2018-04-22T00:10:45.172Z,84.81
2018-04-22T00:11:45.146Z,84.91
2018-04-22T00:12:45.122Z,84.95
2018-04-22T00:13:45.100Z,84.91
2018-04-22T00:14:45.074Z,84.71
2018-04-22T00:15:45.079Z,84.95
2018-04-22T00:16:45.026Z,84.81
2018-04-22T00:17:44.997Z,84.61
2018-04-22T00:18:44.971Z,85.04
2018-04-22T00:19:44.982Z,84.75
2018-04-22T00:20:44.921Z,85.10
2018-04-22T00:21:44.901Z,84.71
2018-04-22T00:22:44.870Z,84.85
2018-04-22T00:23:44.935Z,85.00
2018-04-22T00:24:44.849Z,84.61
2018-04-22T00:25:44.862Z,84.91
2018-04-22T00:26:44.838Z,84.66
2018-04-22T00:27:44.928Z,84.75
2018-04-22T00:28:44.777Z,84.75
2018-04-22T00:29:46.299Z,85.00
2018-04-22T00:30:44.774Z,84.85
2018-04-22T00:31:44.744Z,84.71
2018-04-22T00:32:44.679Z,84.91
2018-04-22T00:33:44.655Z,84.61
2018-04-22T00:34:44.621Z,84.61
2018-04-22T00:35:44.626Z,84.81
2018-04-22T00:36:44.538Z,84.81
2018-04-22T00:37:44.564Z,84.71
2018-04-22T00:38:44.539Z,84.71
2018-04-22T00:39:44.511Z,84.61
2018-04-22T00:40:44.476Z,84.61
2018-04-22T00:41:44.455Z,84.81
2018-04-22T00:42:44.437Z,84.81
2018-04-22T00:43:44.418Z,84.33
2018-04-22T00:44:44.396Z,84.23
2018-04-22T00:45:44.358Z,84.09
2018-04-22T00:46:44.340Z,85.00
2018-04-22T00:47:44.304Z,84.23
2018-04-22T00:48:44.292Z,85.00
2018-04-22T00:49:44.237Z,84.91
2018-04-22T00:50:44.236Z,84.42
2018-04-22T00:51:44.219Z,84.42
2018-04-22T00:52:44.238Z,84.23
2018-04-22T00:53:44.192Z,84.81
2018-04-22T00:54:44.171Z,84.42
2018-04-22T00:55:44.137Z,84.42
2018-04-22T00:56:44.099Z,84.52
2018-04-22T00:57:44.071Z,84.61
2018-04-22T00:58:44.032Z,84.91
2018-04-22T00:59:44.020Z,84.23
2018-04-22T01:00:43.992Z,84.04
2018-04-22T01:01:43.976Z,84.23
2018-04-22T01:02:43.950Z,84.42
2018-04-22T01:03:43.929Z,84.42
2018-04-22T01:04:43.839Z,84.71
2018-04-22T01:05:43.865Z,84.67
2018-04-22T01:06:43.851Z,84.67
2018-04-22T01:07:43.872Z,84.95
2018-04-22T01:08:43.789Z,84.09
2018-04-22T01:09:43.765Z,84.38
2018-04-22T01:10:43.740Z,84.86
2018-04-22T01:11:43.724Z,84.28
2018-04-22T01:12:43.714Z,85.15
2018-04-22T01:13:43.677Z,84.48
2018-04-22T01:14:43.640Z,84.28
2018-04-22T01:15:43.612Z,84.09
2018-04-22T01:16:43.581Z,84.95
2018-04-22T01:17:43.562Z,84.61
2018-04-22T01:18:43.538Z,84.42
2018-04-22T01:19:43.517Z,84.71
2018-04-22T01:20:43.497Z,84.23
2018-04-22T01:21:43.508Z,84.23
2018-04-22T01:22:43.445Z,84.61
2018-04-22T01:23:43.426Z,84.48
2018-04-22T01:24:43.457Z,84.38
2018-04-22T01:25:43.375Z,84.48
2018-04-22T01:26:43.352Z,84.09
2018-04-22T01:27:43.336Z,84.28
2018-04-22T01:28:43.294Z,84.28
2018-04-22T01:29:43.282Z,83.81
2018-04-22T01:30:43.255Z,83.42
2018-04-22T01:31:43.218Z,83.71
2018-04-22T01:32:43.192Z,83.04
2018-04-22T01:33:43.166Z,84.58
2018-04-22T01:34:43.168Z,83.42
2018-04-22T01:35:43.129Z,84.09
2018-04-22T01:36:43.045Z,83.61
2018-04-22T01:37:43.101Z,82.94
2018-04-22T01:38:43.057Z,84.28
2018-04-22T01:39:43.030Z,84.09
2018-04-22T01:40:43.013Z,84.48
2018-04-22T01:41:42.984Z,84.28
2018-04-22T01:42:42.959Z,84.19
2018-04-22T01:43:42.934Z,84.19
2018-04-22T01:44:42.916Z,83.81
2018-04-22T01:45:42.884Z,84.00
2018-04-22T01:46:42.851Z,84.00
2018-04-22T01:47:42.848Z,83.81
2018-04-22T01:48:42.793Z,83.91
2018-04-22T01:49:42.797Z,84.09
2018-04-22T01:50:42.746Z,83.33
2018-04-22T01:51:42.712Z,83.42
2018-04-22T01:52:42.678Z,83.14
2018-04-22T01:53:42.676Z,83.52
2018-04-22T01:54:42.681Z,83.38
2018-04-22T01:55:42.607Z,83.09
2018-04-22T01:56:42.603Z,82.71
2018-04-22T01:57:42.570Z,81.85
2018-04-22T01:58:42.505Z,82.90
2018-04-22T01:59:42.478Z,83.29
2018-04-22T02:00:42.451Z,82.37
2018-04-22T02:01:42.437Z,82.46
2018-04-22T02:02:42.395Z,82.85
2018-04-22T02:03:42.416Z,82.18
2018-04-22T02:04:42.344Z,82.94
2018-04-22T02:05:42.320Z,83.52
2018-04-22T02:06:42.290Z,82.46
2018-04-22T02:07:42.266Z,82.75
2018-04-22T02:08:42.241Z,83.04
2018-04-22T02:09:42.213Z,82.85
2018-04-22T02:10:42.196Z,83.14
2018-04-22T02:11:42.170Z,82.65
2018-04-22T02:12:42.146Z,82.94
2018-04-22T02:13:42.126Z,82.65
2018-04-22T02:14:42.096Z,82.62
2018-04-22T02:15:42.081Z,82.71
2018-04-22T02:16:42.042Z,82.85
2018-04-22T02:17:42.044Z,81.98
2018-04-22T02:18:41.992Z,83.04
2018-04-22T02:19:41.969Z,83.23
2018-04-22T02:20:41.956Z,82.56
2018-04-22T02:21:41.932Z,82.18
2018-04-22T02:22:41.893Z,82.52
2018-04-22T02:23:41.873Z,81.75
2018-04-22T02:24:41.839Z,82.71
2018-04-22T02:25:41.817Z,82.32
2018-04-22T02:26:41.817Z,82.18
2018-04-22T02:27:41.775Z,82.14
2018-04-22T02:28:43.287Z,82.14
2018-04-22T02:29:41.725Z,81.95
2018-04-22T02:30:41.708Z,81.85
2018-04-22T02:31:41.668Z,82.23
2018-04-22T02:32:41.647Z,82.32
2018-04-22T02:33:41.617Z,81.66
2018-04-22T02:34:41.591Z,80.79
2018-04-22T02:35:41.565Z,81.66
2018-04-22T02:36:41.535Z,81.08
2018-04-22T02:37:41.514Z,82.14
2018-04-22T02:38:41.487Z,81.75
2018-04-22T02:39:41.465Z,81.75
2018-04-22T02:40:41.443Z,80.41
2018-04-22T02:41:41.414Z,81.85
2018-04-22T02:42:41.394Z,82.32
2018-04-22T02:43:41.368Z,81.75
2018-04-22T02:44:41.339Z,82.04
2018-04-22T02:45:41.314Z,80.70
2018-04-22T02:46:41.287Z,82.04
2018-04-22T02:47:41.274Z,81.95
2018-04-22T02:48:41.240Z,81.37
2018-04-22T02:49:41.221Z,82.14
2018-04-22T02:50:41.192Z,82.14
2018-04-22T02:51:41.158Z,82.14
2018-04-22T02:52:41.139Z,81.08
2018-04-22T02:53:41.116Z,81.46
2018-04-22T02:54:41.125Z,80.60
2018-04-22T02:55:41.069Z,80.60
2018-04-22T02:56:41.044Z,79.74
2018-04-22T02:57:41.034Z,80.51
2018-04-22T02:58:40.981Z,80.41
2018-04-22T02:59:40.963Z,80.51
2018-04-22T03:00:40.950Z,80.89
2018-04-22T03:01:40.920Z,79.74
2018-04-22T03:02:40.881Z,79.93
2018-04-22T03:03:40.855Z,79.74
2018-04-22T03:04:40.834Z,79.83
2018-04-22T03:05:40.801Z,79.83
2018-04-22T03:06:40.797Z,79.51
2018-04-22T03:07:40.757Z,78.93
2018-04-22T03:08:40.734Z,79.99
2018-04-22T03:09:40.710Z,79.55
2018-04-22T03:10:40.688Z,79.70
2018-04-22T03:11:40.659Z,79.13
2018-04-22T03:12:40.640Z,77.97
2018-04-22T03:13:40.647Z,79.22
2018-04-22T03:14:40.574Z,79.32
2018-04-22T03:15:40.554Z,79.13
2018-04-22T03:16:40.566Z,78.84
2018-04-22T03:17:40.534Z,79.22
2018-04-22T03:18:40.471Z,78.55
2018-04-22T03:19:40.467Z,77.78
2018-04-22T03:20:40.424Z,77.40
2018-04-22T03:21:40.421Z,78.07
2018-04-22T03:22:40.375Z,77.59
2018-04-22T03:23:40.351Z,76.40
2018-04-22T03:24:40.336Z,76.92
2018-04-22T03:25:40.303Z,76.92
2018-04-22T03:26:40.284Z,76.92
2018-04-22T03:27:40.259Z,76.64
2018-04-22T03:28:40.240Z,77.50
2018-04-22T03:29:40.205Z,77.78
2018-04-22T03:30:40.173Z,77.31
2018-04-22T03:31:40.152Z,77.40
2018-04-22T03:32:40.118Z,77.40
2018-04-22T03:33:40.104Z,76.92
2018-04-22T03:34:40.070Z,76.92
2018-04-22T03:35:40.039Z,76.64
2018-04-22T03:36:40.023Z,77.11
2018-04-22T03:37:39.988Z,76.92
2018-04-22T03:38:39.995Z,76.82
2018-04-22T03:39:39.943Z,77.11
2018-04-22T03:40:39.941Z,76.35
2018-04-22T03:41:39.894Z,77.08
2018-04-22T03:42:39.891Z,76.15
2018-04-22T03:43:39.850Z,76.64
2018-04-22T03:44:39.821Z,77.17
2018-04-22T03:45:39.795Z,76.69
2018-04-22T03:46:39.781Z,76.25
2018-04-22T03:47:39.740Z,75.87
2018-04-22T03:48:39.713Z,76.12
2018-04-22T03:49:39.708Z,75.96
2018-04-22T03:50:39.662Z,75.83
2018-04-22T03:51:39.635Z,76.12
2018-04-22T03:52:39.610Z,76.31
2018-04-22T03:53:39.585Z,75.16
2018-04-22T03:54:39.564Z,75.26
2018-04-22T03:55:39.623Z,75.35
2018-04-22T03:56:39.508Z,74.58
2018-04-22T03:57:39.486Z,74.77
2018-04-22T03:58:39.450Z,75.54
2018-04-22T03:59:39.427Z,74.97
2018-04-22T04:00:39.400Z,75.16
2018-04-22T04:01:39.375Z,75.16
2018-04-22T04:02:39.361Z,74.68
2018-04-22T04:03:39.326Z,74.11
2018-04-22T04:04:39.302Z,74.11
2018-04-22T04:05:39.293Z,74.20
2018-04-22T04:06:39.261Z,74.77
2018-04-22T04:07:39.225Z,74.49
2018-04-22T04:08:39.200Z,74.77
2018-04-22T04:09:39.182Z,74.20
2018-04-22T04:10:39.149Z,74.30
2018-04-22T04:11:39.121Z,74.58
2018-04-22T04:12:39.095Z,74.91
2018-04-22T04:13:39.067Z,75.64
2018-04-22T04:14:39.072Z,74.77
2018-04-22T04:15:39.025Z,74.20
2018-04-22T04:16:38.991Z,73.91
2018-04-22T04:17:39.003Z,73.44
2018-04-22T04:18:38.941Z,73.54
2018-04-22T04:19:38.919Z,72.77
2018-04-22T04:20:38.892Z,73.34
2018-04-22T04:21:38.873Z,73.72
2018-04-22T04:22:38.845Z,73.34
2018-04-22T04:23:38.827Z,73.34
2018-04-22T04:24:38.789Z,74.11
2018-04-22T04:25:38.764Z,73.76
2018-04-22T04:26:38.737Z,74.24
2018-04-22T04:27:38.708Z,75.07
2018-04-22T04:28:38.686Z,73.86
2018-04-22T04:29:38.669Z,72.99
2018-04-22T04:30:38.674Z,73.72
2018-04-22T04:31:38.618Z,74.01
2018-04-22T04:32:38.578Z,72.77
2018-04-22T04:33:38.566Z,73.54
2018-04-22T04:34:38.542Z,73.72
2018-04-22T04:35:38.509Z,72.67
2018-04-22T04:36:38.487Z,72.92
2018-04-22T04:37:38.460Z,72.25
2018-04-22T04:38:38.431Z,71.87
2018-04-22T04:39:38.406Z,72.06
2018-04-22T04:40:38.388Z,72.16
2018-04-22T04:41:38.351Z,71.30
2018-04-22T04:42:38.325Z,71.87
2018-04-22T04:43:38.300Z,71.87
2018-04-22T04:44:38.274Z,71.71
2018-04-22T04:45:38.245Z,72.38
2018-04-22T04:46:38.224Z,72.48
2018-04-22T04:47:38.196Z,72.77
2018-04-22T04:48:38.171Z,71.52
2018-04-22T04:49:38.138Z,72.58
2018-04-22T04:50:38.120Z,71.62
2018-04-22T04:51:38.098Z,71.33
2018-04-22T04:52:38.067Z,72.67
2018-04-22T04:53:38.047Z,72.19
2018-04-22T04:54:38.014Z,72.67
2018-04-22T04:55:38.005Z,71.81
2018-04-22T04:56:37.967Z,72.86
2018-04-22T04:57:37.984Z,72.29
2018-04-22T04:58:37.913Z,72.09
2018-04-22T04:59:37.882Z,72.58
2018-04-22T05:00:37.871Z,72.67
2018-04-22T05:01:37.829Z,71.42
2018-04-22T05:02:37.812Z,72.77
2018-04-22T05:03:37.824Z,72.58
2018-04-22T05:04:37.760Z,72.86
2018-04-22T05:05:37.735Z,71.04
2018-04-22T05:06:37.722Z,71.84
2018-04-22T05:07:37.676Z,73.57
2018-04-22T05:08:37.652Z,73.66
2018-04-22T05:09:37.623Z,73.38
2018-04-22T05:10:37.614Z,72.61
2018-04-22T05:11:37.579Z,72.80
2018-04-22T05:12:37.566Z,73.76
2018-04-22T05:13:37.539Z,73.57
2018-04-22T05:14:37.507Z,73.47
2018-04-22T05:15:37.479Z,73.66
2018-04-22T05:16:37.452Z,73.66
2018-04-22T05:17:37.424Z,74.05
2018-04-22T05:18:37.396Z,74.52
2018-04-22T05:19:37.370Z,74.24
2018-04-22T05:20:37.352Z,73.76
2018-04-22T05:21:37.327Z,73.66
2018-04-22T05:22:37.287Z,72.80
2018-04-22T05:23:37.272Z,72.80
2018-04-22T05:24:37.247Z,73.47
2018-04-22T05:25:37.219Z,72.61
2018-04-22T05:26:37.196Z,72.52
2018-04-22T05:27:37.170Z,72.71
2018-04-22T05:28:37.136Z,72.61
2018-04-22T05:29:37.112Z,71.71
2018-04-22T05:30:37.153Z,70.60
2018-04-22T05:31:37.089Z,71.27
2018-04-22T05:32:37.040Z,71.81
2018-04-22T05:33:37.015Z,71.42
2018-04-22T05:34:36.986Z,72.23
2018-04-22T05:35:36.965Z,71.46
2018-04-22T05:36:36.939Z,72.52
2018-04-22T05:37:36.917Z,72.13
2018-04-22T05:38:36.886Z,72.42
2018-04-22T05:39:36.860Z,72.52
2018-04-22T05:40:36.833Z,71.94
2018-04-22T05:41:36.838Z,71.84
2018-04-22T05:42:36.826Z,71.75
2018-04-22T05:43:36.780Z,71.46
2018-04-22T05:44:36.729Z,71.75
2018-04-22T05:45:36.704Z,71.56
2018-04-22T05:46:36.684Z,71.56
2018-04-22T05:47:36.668Z,72.13
2018-04-22T05:48:36.634Z,71.94
2018-04-22T05:49:36.614Z,72.52
2018-04-22T05:50:36.584Z,72.23
2018-04-22T05:51:36.552Z,72.32
2018-04-22T05:52:36.557Z,71.17
2018-04-22T05:53:36.501Z,72.23
2018-04-22T05:54:36.470Z,73.51
2018-04-22T05:55:36.457Z,73.32
2018-04-22T05:56:36.418Z,72.64
2018-04-22T05:57:36.395Z,73.80
2018-04-22T05:58:36.375Z,72.27
2018-04-22T05:59:36.348Z,73.03
2018-04-22T06:00:36.320Z,72.84
2018-04-22T06:01:36.303Z,73.32
2018-04-22T06:02:36.277Z,72.84
2018-04-22T06:03:36.245Z,72.94
2018-04-22T06:04:36.222Z,73.22
2018-04-22T06:05:36.197Z,72.84
2018-04-22T06:06:36.169Z,73.32
2018-04-22T06:07:36.141Z,73.70
2018-04-22T06:08:36.171Z,73.90
2018-04-22T06:09:36.089Z,73.51
2018-04-22T06:10:36.069Z,74.47
2018-04-22T06:11:36.047Z,73.80
2018-04-22T06:12:36.016Z,72.94
2018-04-22T06:13:36.009Z,74.37
2018-04-22T06:14:35.973Z,74.18
2018-04-22T06:15:35.947Z,74.18
2018-04-22T06:16:35.922Z,72.84
2018-04-22T06:17:35.901Z,73.74
2018-04-22T06:18:35.868Z,75.18
2018-04-22T06:19:35.842Z,74.89
2018-04-22T06:20:35.836Z,74.02
2018-04-22T06:21:35.791Z,74.51
2018-04-22T06:22:35.764Z,74.79
2018-04-22T06:23:35.779Z,75.37
2018-04-22T06:24:35.716Z,75.27
2018-04-22T06:25:35.693Z,74.93
2018-04-22T06:26:35.740Z,74.93
2018-04-22T06:27:35.642Z,76.07
2018-04-22T06:28:35.621Z,75.50
2018-04-22T06:29:35.602Z,76.75
2018-04-22T06:30:35.573Z,76.84
2018-04-22T06:31:35.545Z,76.94
2018-04-22T06:32:35.517Z,76.94
2018-04-22T06:33:35.500Z,76.07
2018-04-22T06:34:35.466Z,76.17
2018-04-22T06:35:35.440Z,77.23
2018-04-22T06:36:35.416Z,77.26
2018-04-22T06:37:35.391Z,77.26
2018-04-22T06:38:35.366Z,76.94
2018-04-22T06:39:35.363Z,76.21
2018-04-22T06:40:35.369Z,76.84
2018-04-22T06:41:35.292Z,77.36
2018-04-22T06:42:35.273Z,76.40
2018-04-22T06:43:35.251Z,77.26
2018-04-22T06:44:35.224Z,76.98
2018-04-22T06:45:35.204Z,77.56
2018-04-22T06:46:35.174Z,77.36
2018-04-22T06:47:35.150Z,77.65
2018-04-22T06:48:35.121Z,76.98
2018-04-22T06:49:35.144Z,77.98
2018-04-22T06:50:35.073Z,77.50
2018-04-22T06:51:35.046Z,77.01
2018-04-22T06:52:35.027Z,77.11
2018-04-22T06:53:34.997Z,77.78
2018-04-22T06:54:34.973Z,78.55
2018-04-22T06:55:34.951Z,78.08
2018-04-22T06:56:34.921Z,78.17
2018-04-22T06:57:34.898Z,77.88
2018-04-22T06:58:34.880Z,78.45
2018-04-22T06:59:34.860Z,77.98
2018-04-22T07:00:34.836Z,78.30
2018-04-22T07:01:34.806Z,78.21
2018-04-22T07:02:34.784Z,78.40
2018-04-22T07:03:34.772Z,78.88
2018-04-22T07:04:34.732Z,79.46
2018-04-22T07:05:34.707Z,79.07
2018-04-22T07:06:34.684Z,79.17
2018-04-22T07:07:34.656Z,78.98
2018-04-22T07:08:34.637Z,79.50
2018-04-22T07:09:34.615Z,79.60
2018-04-22T07:10:34.597Z,79.40
2018-04-22T07:11:34.562Z,79.60
2018-04-22T07:12:34.546Z,79.98
2018-04-22T07:13:34.518Z,80.55
2018-04-22T07:14:34.487Z,80.36
2018-04-22T07:15:34.485Z,80.36
2018-04-22T07:16:34.444Z,80.02
2018-04-22T07:17:34.435Z,81.07
2018-04-22T07:18:34.390Z,80.40
2018-04-22T07:19:34.372Z,81.27
2018-04-22T07:20:34.345Z,81.75
2018-04-22T07:21:34.322Z,81.75
2018-04-22T07:22:34.303Z,81.56
2018-04-22T07:23:34.276Z,81.94
2018-04-22T07:24:34.260Z,82.56
2018-04-22T07:25:34.230Z,81.40
2018-04-22T07:26:34.205Z,82.46
2018-04-22T07:27:34.187Z,82.56
2018-04-22T07:28:34.190Z,82.46
2018-04-22T07:29:34.138Z,82.94
2018-04-22T07:30:34.109Z,82.27
2018-04-22T07:31:34.095Z,82.60
2018-04-22T07:32:34.106Z,82.41
2018-04-22T07:33:34.038Z,82.50
2018-04-22T07:34:34.011Z,82.41
2018-04-22T07:35:34.767Z,82.70
2018-04-22T07:36:33.966Z,82.70
2018-04-22T07:37:33.943Z,83.31
2018-04-22T07:38:34.855Z,82.54
2018-04-22T07:39:33.902Z,82.93
2018-04-22T07:40:33.886Z,83.70
2018-04-22T07:41:33.894Z,83.51
2018-04-22T07:42:33.882Z,83.70
2018-04-22T07:43:33.856Z,83.64
2018-04-22T07:44:36.335Z,83.07
2018-04-22T07:45:34.114Z,83.55
2018-04-22T07:46:33.729Z,84.42
2018-04-22T07:47:50.571Z,83.64
2018-04-22T07:48:33.686Z,83.16
2018-04-22T07:49:33.673Z,84.12
2018-04-22T07:50:33.693Z,83.64
2018-04-22T07:51:33.622Z,84.52
2018-04-22T07:52:33.598Z,84.32
2018-04-22T07:53:33.576Z,84.52
2018-04-22T07:54:33.555Z,83.16
2018-04-22T07:55:33.653Z,84.52
2018-04-22T07:56:33.510Z,84.42
2018-04-22T07:57:33.547Z,84.32
2018-04-22T07:58:33.454Z,84.61
2018-04-22T07:59:33.459Z,84.27
2018-04-22T08:00:33.410Z,84.94
2018-04-22T08:01:33.499Z,85.03
2018-04-22T08:02:33.360Z,84.46
2018-04-22T08:03:33.382Z,84.65
2018-04-22T08:04:33.318Z,84.94
2018-04-22T08:05:33.345Z,84.46
2018-04-22T08:06:33.272Z,84.75
2018-04-22T08:07:33.246Z,84.94
2018-04-22T08:08:33.244Z,84.55
2018-04-22T08:09:33.199Z,84.65
2018-04-22T08:10:33.190Z,85.08
2018-04-22T08:11:33.162Z,85.03
2018-04-22T08:12:33.141Z,84.89
2018-04-22T08:13:33.120Z,84.31
2018-04-22T08:14:33.115Z,84.79
2018-04-22T08:15:33.069Z,83.92
2018-04-22T08:16:33.048Z,84.11
2018-04-22T08:17:33.020Z,83.73
2018-04-22T08:18:33.085Z,84.21
2018-04-22T08:19:32.977Z,83.44
2018-04-22T08:20:32.961Z,83.73
2018-04-22T08:21:32.952Z,83.63
2018-04-22T08:22:32.942Z,83.63
2018-04-22T08:23:32.897Z,83.25
2018-04-22T08:24:32.872Z,83.15
2018-04-22T08:25:32.848Z,83.58
2018-04-22T08:26:32.821Z,83.67
2018-04-22T08:27:32.794Z,83.77
2018-04-22T08:28:32.785Z,83.87
2018-04-22T08:29:32.746Z,83.19
2018-04-22T08:30:32.743Z,83.19
2018-04-22T08:31:32.711Z,83.29
2018-04-22T08:32:32.682Z,82.32
2018-04-22T08:33:32.669Z,82.51
2018-04-22T08:34:32.640Z,82.26
2018-04-22T08:35:32.616Z,81.01
2018-04-22T08:36:32.609Z,80.62
2018-04-22T08:37:32.575Z,80.62
2018-04-22T08:38:32.562Z,80.57
2018-04-22T08:39:32.533Z,79.60
2018-04-22T08:40:32.513Z,79.41
2018-04-22T08:41:32.485Z,77.09
2018-04-22T08:42:32.465Z,74.77
2018-04-22T08:43:32.440Z,75.26
2018-04-22T08:44:32.420Z,75.35
2018-04-22T08:45:32.403Z,76.37
2018-04-22T08:46:32.372Z,76.61
2018-04-22T08:47:32.350Z,77.83
2018-04-22T08:48:32.329Z,78.15
2018-04-22T08:49:32.309Z,77.96
2018-04-22T08:50:32.286Z,76.61
2018-04-22T08:51:32.267Z,76.51
2018-04-22T08:52:32.253Z,76.61
2018-04-22T08:53:32.224Z,75.35
2018-04-22T08:54:32.202Z,75.35
2018-04-22T08:55:32.216Z,73.22
2018-04-22T08:56:32.170Z,74.29
2018-04-22T08:57:32.160Z,74.10
2018-04-22T08:58:32.157Z,73.52
2018-04-22T08:59:32.086Z,72.39
2018-04-22T09:00:32.066Z,71.81
2018-04-22T09:01:32.065Z,71.78
2018-04-22T09:02:32.028Z,72.10
2018-04-22T09:03:32.007Z,71.91
2018-04-22T09:04:31.978Z,71.72
2018-04-22T09:05:31.966Z,70.36
2018-04-22T09:06:32.032Z,70.46
2018-04-22T09:07:31.922Z,70.17
2018-04-22T09:08:31.909Z,69.68
2018-04-22T09:09:31.884Z,70.56
2018-04-22T09:10:31.928Z,70.65
2018-04-22T09:11:31.863Z,70.88
2018-04-22T09:12:31.822Z,68.14
2018-04-22T09:13:31.789Z,69.20
2018-04-22T09:14:31.826Z,69.92
2018-04-22T09:15:31.747Z,68.62
2018-04-22T09:16:31.735Z,68.43
2018-04-22T09:17:31.712Z,67.85
2018-04-22T09:18:31.698Z,68.04
2018-04-22T09:19:31.668Z,69.49
2018-04-22T09:20:31.707Z,68.33
2018-04-22T09:21:32.108Z,68.43
2018-04-22T09:22:31.594Z,68.43
2018-04-22T09:23:31.582Z,68.91
2018-04-22T09:24:31.579Z,68.17
2018-04-22T09:25:31.534Z,68.08
2018-04-22T09:26:31.532Z,67.88
2018-04-22T09:27:31.491Z,67.98
2018-04-22T09:28:31.470Z,68.21
2018-04-22T09:29:31.506Z,66.82
2018-04-22T09:30:31.439Z,67.40
2018-04-22T09:31:31.426Z,67.53
2018-04-22T09:32:31.397Z,67.72
2018-04-22T09:33:31.422Z,66.27
2018-04-22T09:34:31.387Z,65.43
2018-04-22T09:35:31.861Z,65.63
2018-04-22T09:36:32.843Z,64.95
2018-04-22T09:37:31.345Z,63.40
2018-04-22T09:38:31.307Z,63.69
2018-04-22T09:39:31.284Z,63.72
2018-04-22T09:40:31.273Z,63.01
2018-04-22T09:41:31.226Z,63.69
2018-04-22T09:42:31.223Z,62.85
2018-04-22T09:43:31.580Z,62.82
2018-04-22T09:44:31.142Z,63.11
2018-04-22T09:45:31.138Z,62.66
2018-04-22T09:46:31.113Z,61.40
2018-04-22T09:47:31.109Z,59.27
2018-04-22T09:48:31.074Z,58.91
2018-04-22T09:49:31.042Z,59.07
2018-04-22T09:50:31.030Z,59.56
2018-04-22T09:51:31.003Z,59.17
2018-04-22T09:52:30.986Z,59.69
2018-04-22T09:53:30.967Z,59.39
2018-04-22T09:54:30.935Z,58.62
2018-04-22T09:55:32.847Z,56.71
2018-04-22T09:56:30.901Z,55.52
2018-04-22T09:57:30.879Z,55.32
2018-04-22T09:58:30.854Z,56.00
2018-04-22T09:59:30.861Z,55.81
2018-04-22T10:00:30.838Z,55.74
2018-04-22T10:01:30.808Z,55.93
2018-04-22T10:02:30.784Z,55.93
2018-04-22T10:03:30.760Z,55.64
2018-04-22T10:04:30.786Z,56.32
2018-04-22T10:05:30.723Z,56.61
2018-04-22T10:06:30.763Z,56.54
2018-04-22T10:07:30.693Z,55.96
2018-04-22T10:08:30.668Z,55.28
2018-04-22T10:09:30.645Z,55.18
2018-04-22T10:10:30.706Z,53.80
2018-04-22T10:11:30.608Z,53.99
2018-04-22T10:12:30.660Z,53.70
2018-04-22T10:13:30.564Z,54.70
2018-04-22T10:14:30.550Z,53.92
2018-04-22T10:15:30.532Z,53.80
2018-04-22T10:16:30.521Z,53.92
2018-04-22T10:17:32.353Z,53.99
2018-04-22T10:18:30.477Z,54.09
2018-04-22T10:19:30.465Z,53.63
2018-04-22T10:20:30.441Z,53.83
2018-04-22T10:21:30.470Z,54.21
2018-04-22T10:22:30.405Z,54.31
2018-04-22T10:23:30.535Z,53.92
2018-04-22T10:24:31.427Z,54.31
2018-04-22T10:25:30.348Z,53.17
2018-04-22T10:26:30.333Z,52.98
2018-04-22T10:27:30.300Z,53.34
2018-04-22T10:28:30.355Z,53.53
2018-04-22T10:29:33.946Z,53.24
2018-04-22T10:30:30.261Z,52.47
2018-04-22T10:31:30.226Z,51.98
2018-04-22T10:32:30.215Z,51.81
2018-04-22T10:33:30.192Z,51.53
2018-04-22T10:34:30.177Z,51.62
2018-04-22T10:35:30.164Z,51.23
2018-04-22T10:36:30.146Z,51.33
2018-04-22T10:37:30.133Z,51.53
2018-04-22T10:38:30.108Z,51.43
2018-04-22T10:39:30.093Z,50.84
2018-04-22T10:40:30.069Z,50.96
2018-04-22T10:41:30.047Z,51.35
2018-04-22T10:42:30.025Z,51.55
2018-04-22T10:43:30.017Z,51.16
2018-04-22T10:44:30.001Z,51.26
2018-04-22T10:45:29.978Z,50.77
2018-04-22T10:46:29.951Z,51.35
2018-04-22T10:47:29.939Z,50.48
2018-04-22T10:48:29.931Z,50.09
2018-04-22T10:49:29.898Z,50.48
2018-04-22T10:50:29.899Z,50.60
2018-04-22T10:51:30.860Z,50.51
2018-04-22T10:52:29.880Z,50.04
2018-04-22T10:53:29.829Z,50.21
2018-04-22T10:54:29.818Z,50.51
2018-04-22T10:55:29.815Z,50.41
2018-04-22T10:56:29.780Z,48.95
2018-04-22T10:57:29.776Z,48.66
2018-04-22T10:58:29.744Z,50.41
2018-04-22T10:59:29.731Z,50.34
2018-04-22T11:00:29.825Z,49.95
2018-04-22T11:01:29.732Z,49.24
2018-04-22T11:02:29.779Z,48.78
2018-04-22T11:03:29.773Z,47.81
2018-04-22T11:04:30.216Z,46.35
2018-04-22T11:05:31.504Z,47.23
2018-04-22T11:06:29.839Z,48.39
2018-04-22T11:07:30.107Z,47.23
2018-04-22T11:08:29.683Z,47.32
2018-04-22T11:09:29.708Z,48.49
2018-04-22T11:10:29.593Z,48.57
2018-04-22T11:11:30.668Z,48.66
2018-04-22T11:12:31.623Z,49.24
2018-04-22T11:13:29.824Z,48.47
2018-04-22T11:14:31.562Z,49.24
2018-04-22T11:15:29.551Z,48.95
2018-04-22T11:16:29.490Z,47.32
2018-04-22T11:17:29.595Z,46.84
2018-04-22T11:18:29.479Z,47.61
2018-04-22T11:19:29.439Z,47.61
2018-04-22T11:20:29.517Z,46.64
2018-04-22T11:21:29.482Z,46.55
2018-04-22T11:22:29.460Z,46.64
2018-04-22T11:23:31.020Z,47.03
2018-04-22T11:24:29.351Z,45.72
2018-04-22T11:25:29.369Z,44.38
2018-04-22T11:26:29.348Z,43.13
2018-04-22T11:27:29.418Z,42.76
2018-04-22T11:28:29.427Z,42.61
2018-04-22T11:29:29.289Z,41.09
2018-04-22T11:30:32.138Z,40.11
2018-04-22T11:31:29.261Z,39.65
2018-04-22T11:32:29.219Z,38.69
2018-04-22T11:33:29.252Z,39.23
2018-04-22T11:34:29.236Z,40.16
2018-04-22T11:35:29.265Z,41.05
2018-04-22T11:36:32.146Z,40.43
2018-04-22T11:37:29.406Z,39.96
2018-04-22T11:38:29.196Z,38.96
2018-04-22T11:39:29.226Z,38.42
2018-04-22T11:40:29.176Z,38.20
2018-04-22T11:41:29.179Z,39.23
2018-04-22T11:42:29.888Z,39.02
2018-04-22T11:43:29.321Z,39.69
2018-04-22T11:44:29.029Z,41.30
2018-04-22T11:45:29.114Z,41.96
2018-04-22T11:46:29.127Z,43.23
2018-04-22T11:47:29.097Z,43.29
2018-04-22T11:48:29.008Z,43.79
2018-04-22T11:49:29.040Z,43.21
2018-04-22T11:50:28.968Z,41.79
2018-04-22T11:51:29.273Z,41.52
2018-04-22T11:52:31.166Z,42.35
2018-04-22T11:53:29.203Z,42.94
2018-04-22T11:54:29.578Z,43.05
2018-04-22T11:55:29.027Z,43.05
2018-04-22T11:56:28.917Z,42.94
2018-04-22T11:57:29.150Z,42.57
2018-04-22T11:58:29.150Z,42.59
2018-04-22T11:59:30.662Z,42.69
2018-04-22T12:00:28.903Z,42.22
2018-04-22T12:01:28.842Z,41.07
2018-04-22T12:02:28.840Z,38.90
2018-04-22T12:03:30.514Z,37.85
2018-04-22T12:04:29.085Z,37.65
2018-04-22T12:05:28.733Z,39.10
2018-04-22T12:06:28.800Z,39.29
2018-04-22T12:07:28.740Z,40.04
2018-04-22T12:08:29.106Z,41.35
2018-04-22T12:09:28.819Z,42.51
2018-04-22T12:10:28.643Z,41.85
2018-04-22T12:11:28.637Z,42.00
2018-04-22T12:12:28.843Z,41.56
2018-04-22T12:13:39.553Z,40.04
2018-04-22T12:14:29.074Z,39.84
2018-04-22T12:15:30.773Z,38.51
2018-04-22T12:16:28.575Z,37.87
2018-04-22T12:17:28.594Z,37.57
2018-04-22T12:18:31.636Z,36.51
2018-04-22T12:19:28.603Z,36.04
2018-04-22T12:20:31.367Z,36.02
2018-04-22T12:21:30.529Z,36.63
2018-04-22T12:22:28.698Z,37.10
2018-04-22T12:23:29.468Z,37.90
2018-04-22T12:24:28.738Z,38.06
2018-04-22T12:25:30.571Z,37.55
2018-04-22T12:26:29.264Z,38.32
2018-04-22T12:27:29.103Z,39.57
2018-04-22T12:28:28.509Z,40.53
2018-04-22T12:29:28.630Z,41.19
2018-04-22T12:30:28.475Z,42.41
2018-04-22T12:31:29.073Z,43.37
2018-04-22T12:32:28.581Z,42.84
2018-04-22T12:33:28.370Z,43.79
2018-04-22T12:34:28.751Z,44.18
2018-04-22T12:35:28.612Z,44.16
2018-04-22T12:36:28.435Z,44.74
2018-04-22T12:37:28.392Z,45.11
2018-04-22T12:38:28.272Z,45.21
2018-04-22T12:39:28.366Z,45.31
2018-04-22T12:40:28.286Z,45.57
2018-04-22T12:41:28.262Z,46.55
2018-04-22T12:42:28.299Z,46.64
2018-04-22T12:43:30.115Z,46.64
2018-04-22T12:44:29.060Z,46.64
2018-04-22T12:45:28.244Z,46.74
2018-04-22T12:46:28.298Z,46.25
2018-04-22T12:47:28.383Z,46.35
2018-04-22T12:48:28.252Z,46.72
2018-04-22T12:49:28.101Z,47.01
2018-04-22T12:50:28.087Z,47.30
2018-04-22T12:51:28.129Z,47.40
2018-04-22T12:52:28.091Z,47.78